Weather at Newark Liberty International Airport

Public forecast

Using degrees Fahrenheit for public forecast. Weather courtesy of forecast.io.

Current aviation weather report (METAR) for Newark Liberty International Airport

2022/11/30 08:51 (retrieved 41 minutes ago)

KEWR 300851Z 00000KT 10SM FEW020 SCT050 BKN200 BKN240 04/01 A3018 RMK AO2 SLP218 T00390006 56022

Aviation forecast (TAF) for Newark Liberty International Airport

2022/11/30 09:40 Ammendment (retrieved 0 seconds ago)

TAF AMD KEWR 300838Z 3009/0112 06004KT P6SM SCT020 BKN200 FM301100 13008KT P6SM SCT020 BKN040 FM301400 16011G20KT P6SM VCSH BKN020 FM301600 18016G29KT 5SM -SHRA BR BKN015 WS020/20050KT FM302000 20018G35KT 3SM SHRA BR OVC007 WS020/22050KT FM302300 27015G33KT 6SM -SHRA BKN025 BKN050 FM010100 27017G26KT P6SM SKC